Time;durP1;ratioP1;P1;durP2;ratioP2;P2;SDS_P1;SDS_P2;PMS_P1;PMS_P2;Temp;Humidity;BMP_temperature;BMP_pressure;BME280_temperature;BME280_humidity;BME280_pressure;Samples;Min_cycle;Max_cycle;Signal;HPM_P1;HPM_P2
2022/04/19 00:01:24;;;;;;;4.13;2.28;;;;;;;;;;5054650;28;20049;-59
2022/04/19 00:04:09;;;;;;;4.00;2.17;;;;;;;;;;5053236;28;20051;-60
2022/04/19 00:06:54;;;;;;;4.78;2.20;;;;;;;;;;5054143;28;20041;-60
2022/04/19 00:09:38;;;;;;;2.65;2.13;;;;;;;;;;5053596;28;20110;-61
2022/04/19 00:12:23;;;;;;;4.97;2.53;;;;;;;;;;5053497;28;20048;-59
2022/04/19 00:15:08;;;;;;;4.05;2.58;;;;;;;;;;5054083;28;20037;-59
2022/04/19 00:17:52;;;;;;;6.18;2.55;;;;;;;;;;5054004;28;20053;-60
2022/04/19 00:20:39;;;;;;;4.65;2.65;;;;;;;;;;5054473;28;20045;-63
2022/04/19 00:23:23;;;;;;;5.50;3.08;;;;;;;;;;5054078;28;20040;-60
2022/04/19 00:26:08;;;;;;;4.90;2.58;;;;;;;;;;5054033;28;20068;-63
2022/04/19 00:28:53;;;;;;;7.07;2.92;;;;;;;;;;5054119;28;20477;-62
2022/04/19 00:31:38;;;;;;;6.15;3.00;;;;;;;;;;5053068;28;20044;-61
2022/04/19 00:34:22;;;;;;;4.47;2.70;;;;;;;;;;5052733;28;20052;-61
2022/04/19 00:37:07;;;;;;;6.53;3.22;;;;;;;;;;5052717;28;20045;-62
2022/04/19 00:39:53;;;;;;;5.53;3.30;;;;;;;;;;5052962;28;20045;-60
2022/04/19 00:42:37;;;;;;;7.00;3.30;;;;;;;;;;5052711;28;20040;-61
2022/04/19 00:45:23;;;;;;;7.22;3.45;;;;;;;;;;5052516;28;20040;-63
2022/04/19 00:48:08;;;;;;;3.78;2.63;;;;;;;;;;5052173;28;20047;-61
2022/04/19 00:50:55;;;;;;;4.60;2.40;;;;;;;;;;5052402;28;20541;-66
2022/04/19 00:53:40;;;;;;;4.38;2.55;;;;;;;;;;5053535;28;20041;-65
2022/04/19 00:56:25;;;;;;;3.35;2.50;;;;;;;;;;5052504;28;20040;-66
2022/04/19 00:59:11;;;;;;;4.57;2.45;;;;;;;;;;5053270;28;20044;-66
2022/04/19 01:01:57;;;;;;;3.47;2.30;;;;;;;;;;5052211;28;20045;-66
2022/04/19 01:04:41;;;;;;;4.28;2.28;;;;;;;;;;5053336;28;20400;-66
2022/04/19 01:07:30;;;;;;;4.30;2.20;;;;;;;;;;5052166;28;20053;-66
2022/04/19 01:10:18;;;;;;;2.97;2.03;;;;;;;;;;5051190;28;20112;-66
2022/04/19 01:13:17;;;;;;;3.65;2.08;;;;;;;;;;5052008;28;20052;-67
2022/04/19 01:16:08;;;;;;;4.20;2.25;;;;;;;;;;5052846;28;20499;-66
2022/04/19 01:18:53;;;;;;;7.28;2.42;;;;;;;;;;5037396;28;20081;-65
2022/04/19 01:21:42;;;;;;;4.03;2.67;;;;;;;;;;5052230;28;20076;-66
2022/04/19 01:24:28;;;;;;;6.53;3.10;;;;;;;;;;5051666;28;20053;-61
2022/04/19 01:27:16;;;;;;;4.65;2.85;;;;;;;;;;5051519;28;20541;-61
2022/04/19 01:30:04;;;;;;;6.35;3.28;;;;;;;;;;5051673;28;20546;-62
2022/04/19 01:32:49;;;;;;;9.60;4.15;;;;;;;;;;5052607;28;20049;-61
2022/04/19 01:35:34;;;;;;;7.03;3.63;;;;;;;;;;5052481;28;20496;-62
2022/04/19 01:38:18;;;;;;;6.40;3.42;;;;;;;;;;5052632;28;20873;-61
2022/04/19 01:41:04;;;;;;;5.38;3.35;;;;;;;;;;5051415;28;20045;-62
2022/04/19 01:44:06;;;;;;;4.25;2.80;;;;;;;;;;5051581;28;20053;-63
2022/04/19 01:46:52;;;;;;;6.28;3.42;;;;;;;;;;5051462;28;20052;-63
2022/04/19 01:49:37;;;;;;;5.80;3.40;;;;;;;;;;5037232;28;20136;-64
2022/04/19 01:52:21;;;;;;;8.75;4.18;;;;;;;;;;5051310;28;20404;-65
2022/04/19 01:55:09;;;;;;;7.05;3.92;;;;;;;;;;5051423;28;20045;-65
2022/04/19 01:57:58;;;;;;;7.32;3.95;;;;;;;;;;5051446;28;20065;-64
2022/04/19 02:00:49;;;;;;;7.90;3.80;;;;;;;;;;5037342;28;20076;-64
2022/04/19 02:03:39;;;;;;;4.78;3.95;;;;;;;;;;5037835;28;20052;-65
2022/04/19 02:06:27;;;;;;;6.30;3.85;;;;;;;;;;5051249;28;20041;-63
2022/04/19 02:09:12;;;;;;;5.95;3.78;;;;;;;;;;5051551;28;20056;-63
2022/04/19 02:11:57;;;;;;;6.78;4.10;;;;;;;;;;5052055;28;20559;-64
2022/04/19 02:15:05;;;;;;;7.32;4.82;;;;;;;;;;5046010;28;20041;-63
2022/04/19 02:17:50;;;;;;;6.95;4.80;;;;;;;;;;5045146;28;20504;-65
2022/04/19 02:20:35;;;;;;;6.13;4.65;;;;;;;;;;5031007;28;20056;-61
2022/04/19 02:23:20;;;;;;;6.93;4.95;;;;;;;;;;5030894;28;20046;-63
2022/04/19 02:26:05;;;;;;;9.18;5.03;;;;;;;;;;5030830;28;20037;-63
2022/04/19 02:28:49;;;;;;;8.43;4.85;;;;;;;;;;5045300;28;20053;-63
2022/04/19 02:32:04;;;;;;;7.53;5.00;;;;;;;;;;5031106;28;20046;-63
2022/04/19 02:34:48;;;;;;;6.63;4.35;;;;;;;;;;5017096;28;20085;-65
2022/04/19 02:37:33;;;;;;;6.22;4.82;;;;;;;;;;5045056;28;20104;-60
2022/04/19 02:40:19;;;;;;;6.75;4.13;;;;;;;;;;5039230;28;20103;-61
2022/04/19 02:43:03;;;;;;;5.35;4.00;;;;;;;;;;5050877;28;20396;-61
2022/04/19 02:45:48;;;;;;;5.68;4.00;;;;;;;;;;5050920;28;20549;-61
2022/04/19 02:48:42;;;;;;;6.05;3.35;;;;;;;;;;5050519;28;20099;-61
2022/04/19 02:51:28;;;;;;;5.38;3.70;;;;;;;;;;5050978;28;20408;-61
2022/04/19 02:54:13;;;;;;;5.40;3.50;;;;;;;;;;5051410;28;20071;-60
2022/04/19 02:56:58;;;;;;;5.60;3.50;;;;;;;;;;5036597;28;20052;-60
2022/04/19 02:59:43;;;;;;;4.80;3.22;;;;;;;;;;5050741;28;20087;-61
2022/04/19 03:02:28;;;;;;;5.50;3.35;;;;;;;;;;5030565;28;20049;-62
2022/04/19 03:05:13;;;;;;;4.50;2.72;;;;;;;;;;5030730;28;20042;-60
2022/04/19 03:07:57;;;;;;;5.15;3.28;;;;;;;;;;5046314;28;20080;-61
2022/04/19 03:10:42;;;;;;;6.30;3.25;;;;;;;;;;5043395;28;20056;-62
2022/04/19 03:13:28;;;;;;;4.90;3.22;;;;;;;;;;5039094;28;20061;-61
2022/04/19 03:16:14;;;;;;;5.30;3.20;;;;;;;;;;5036132;28;20041;-62
2022/04/19 03:18:59;;;;;;;4.88;3.20;;;;;;;;;;5042396;28;20496;-61
2022/04/19 03:21:45;;;;;;;4.72;3.05;;;;;;;;;;5043720;28;20069;-58
2022/04/19 03:27:43;;;;;;;7.65;3.42;;;;;;;;;;5056238;28;20051;-58
2022/04/19 03:30:34;;;;;;;5.90;3.20;;;;;;;;;;5030245;28;20143;-60
2022/04/19 03:33:19;;;;;;;5.40;3.13;;;;;;;;;;5044824;28;20053;-64
2022/04/19 03:36:04;;;;;;;5.15;2.90;;;;;;;;;;5046086;28;20068;-61
2022/04/19 03:38:49;;;;;;;5.75;3.05;;;;;;;;;;5053897;28;20151;-61
2022/04/19 03:41:33;;;;;;;7.18;3.25;;;;;;;;;;5053783;28;20059;-63
2022/04/19 03:44:18;;;;;;;6.22;3.17;;;;;;;;;;5054722;28;20095;-61
2022/04/19 03:47:09;;;;;;;5.45;3.30;;;;;;;;;;5054908;28;20045;-62
2022/04/19 03:49:54;;;;;;;5.32;3.10;;;;;;;;;;5053643;28;20116;-62
2022/04/19 03:52:38;;;;;;;6.40;2.78;;;;;;;;;;5053404;28;20052;-63
2022/04/19 03:55:24;;;;;;;5.60;3.15;;;;;;;;;;5053282;28;20403;-61
2022/04/19 03:58:09;;;;;;;6.22;3.45;;;;;;;;;;5054614;28;20052;-63
2022/04/19 04:00:54;;;;;;;6.03;3.30;;;;;;;;;;5053466;28;20044;-62
2022/04/19 04:03:38;;;;;;;5.32;3.22;;;;;;;;;;5039415;28;20056;-62
2022/04/19 04:06:25;;;;;;;4.35;2.83;;;;;;;;;;5039313;28;20048;-63
2022/04/19 04:09:11;;;;;;;5.35;2.88;;;;;;;;;;5039431;28;20041;-64
2022/04/19 04:11:56;;;;;;;6.55;2.92;;;;;;;;;;5039530;28;20048;-63
2022/04/19 04:14:43;;;;;;;6.20;3.30;;;;;;;;;;5039068;28;20149;-62
2022/04/19 04:17:28;;;;;;;7.25;3.45;;;;;;;;;;5052747;28;20044;-62
2022/04/19 04:20:14;;;;;;;6.97;3.42;;;;;;;;;;5052859;28;20049;-62
2022/04/19 04:22:59;;;;;;;8.73;3.75;;;;;;;;;;5052990;28;20041;-63
2022/04/19 04:25:43;;;;;;;5.07;3.10;;;;;;;;;;5053265;28;20080;-63
2022/04/19 04:28:29;;;;;;;5.70;3.90;;;;;;;;;;5049217;28;20053;-63
2022/04/19 04:31:14;;;;;;;4.63;3.25;;;;;;;;;;5052246;28;20052;-62
2022/04/19 04:33:59;;;;;;;6.95;3.53;;;;;;;;;;5038570;28;20044;-61
2022/04/19 04:36:44;;;;;;;5.47;3.45;;;;;;;;;;5038724;28;20045;-63
2022/04/19 04:39:34;;;;;;;9.30;3.70;;;;;;;;;;5052390;28;20041;-62
2022/04/19 04:42:37;;;;;;;5.53;1.95;;;;;;;;;;5042188;28;20064;-60
2022/04/19 04:45:28;;;;;;;3.63;2.65;;;;;;;;;;5045033;28;20403;-63
2022/04/19 04:51:18;;;;;;;5.18;2.75;;;;;;;;;;5043786;28;20041;-61
2022/04/19 04:54:03;;;;;;;5.95;3.03;;;;;;;;;;5045489;28;20044;-62
2022/04/19 04:56:49;;;;;;;5.72;2.40;;;;;;;;;;5052120;28;20045;-61
2022/04/19 04:59:34;;;;;;;5.63;2.92;;;;;;;;;;5051476;28;20107;-61
2022/04/19 05:02:19;;;;;;;3.15;1.73;;;;;;;;;;5038161;28;20037;-61
2022/04/19 05:05:04;;;;;;;4.30;2.97;;;;;;;;;;5051998;28;20041;-61
2022/04/19 05:07:48;;;;;;;7.43;2.88;;;;;;;;;;5065326;28;20042;-61
2022/04/19 05:10:34;;;;;;;5.32;3.60;;;;;;;;;;5032089;28;20152;-62
2022/04/19 05:13:24;;;;;;;4.80;2.30;;;;;;;;;;5032043;28;20049;-62
2022/04/19 05:16:09;;;;;;;3.95;3.05;;;;;;;;;;5041335;28;20112;-62
2022/04/19 05:18:54;;;;;;;3.67;2.38;;;;;;;;;;5051770;28;20057;-62
2022/04/19 05:21:39;;;;;;;3.63;2.42;;;;;;;;;;5051682;28;20063;-63
2022/04/19 05:24:24;;;;;;;5.28;2.60;;;;;;;;;;5050463;28;20064;-63
2022/04/19 05:27:11;;;;;;;4.00;2.90;;;;;;;;;;5049451;28;20396;-61
2022/04/19 05:29:57;;;;;;;5.82;3.20;;;;;;;;;;5051627;28;20049;-60
2022/04/19 05:32:42;;;;;;;4.85;3.40;;;;;;;;;;5051393;28;20044;-62
2022/04/19 05:35:27;;;;;;;5.00;3.10;;;;;;;;;;5049501;28;21270;-61
2022/04/19 05:38:11;;;;;;;5.57;3.10;;;;;;;;;;5031588;28;20041;-59
2022/04/19 05:40:56;;;;;;;4.53;2.92;;;;;;;;;;5044639;28;20044;-59
2022/04/19 05:43:41;;;;;;;6.13;3.03;;;;;;;;;;5037438;28;20071;-60
2022/04/19 05:46:25;;;;;;;3.65;2.40;;;;;;;;;;5037396;28;20094;-59
2022/04/19 05:49:11;;;;;;;7.93;2.85;;;;;;;;;;5051306;28;20056;-59
2022/04/19 05:51:58;;;;;;;6.50;3.13;;;;;;;;;;5051367;28;20049;-61
2022/04/19 05:54:43;;;;;;;5.20;2.90;;;;;;;;;;5037112;28;20045;-63
2022/04/19 05:57:28;;;;;;;4.85;3.22;;;;;;;;;;5036605;28;20095;-59
2022/04/19 06:00:13;;;;;;;5.00;2.67;;;;;;;;;;5036204;28;20057;-60
2022/04/19 06:06:11;;;;;;;5.85;3.17;;;;;;;;;;5049023;28;20447;-62
2022/04/19 06:08:59;;;;;;;6.47;3.60;;;;;;;;;;5050970;28;20048;-61
2022/04/19 06:11:44;;;;;;;5.40;3.20;;;;;;;;;;5051090;28;20114;-59
2022/04/19 06:14:30;;;;;;;5.63;3.30;;;;;;;;;;5050218;28;20041;-61
2022/04/19 06:17:17;;;;;;;5.80;2.95;;;;;;;;;;5050171;28;20059;-62
2022/04/19 06:20:02;;;;;;;5.05;3.20;;;;;;;;;;5050940;28;20065;-60
2022/04/19 06:22:48;;;;;;;3.72;2.80;;;;;;;;;;5049914;28;20447;-61
2022/04/19 06:25:36;;;;;;;7.63;3.72;;;;;;;;;;5048083;28;20041;-59
2022/04/19 06:28:21;;;;;;;5.88;3.35;;;;;;;;;;5051035;28;20049;-60
2022/04/19 06:31:25;;;;;;;5.25;2.20;;;;;;;;;;5051492;28;20480;-60
2022/04/19 06:34:16;;;;;;;4.50;1.75;;;;;;;;;;5050114;28;20426;-59
2022/04/19 06:37:20;;;;;;;4.38;2.30;;;;;;;;;;5050534;28;20041;-67
2022/04/19 06:40:10;;;;;;;8.43;3.97;;;;;;;;;;5065298;28;20033;-65
2022/04/19 06:42:57;;;;;;;4.53;2.45;;;;;;;;;;5050505;28;20037;-59
2022/04/19 06:45:45;;;;;;;5.82;2.72;;;;;;;;;;5079095;28;20049;-59
2022/04/19 06:48:41;;;;;;;5.43;2.88;;;;;;;;;;5051801;28;20044;-59
2022/04/19 06:51:26;;;;;;;5.35;2.83;;;;;;;;;;5036299;28;20115;-60
2022/04/19 06:54:15;;;;;;;3.53;2.55;;;;;;;;;;5079395;28;20041;-60
2022/04/19 06:57:03;;;;;;;9.40;2.90;;;;;;;;;;5079077;28;20048;-59
2022/04/19 06:59:48;;;;;;;5.05;2.92;;;;;;;;;;5050401;28;20110;-59
2022/04/19 07:02:33;;;;;;;9.50;2.40;;;;;;;;;;5036441;28;20044;-60
2022/04/19 07:05:36;;;;;;;9.73;2.63;;;;;;;;;;5041836;28;20044;-61
2022/04/19 07:08:21;;;;;;;5.90;2.55;;;;;;;;;;5051036;28;20048;-61
2022/04/19 07:11:07;;;;;;;4.53;2.47;;;;;;;;;;5054559;28;20060;-61
2022/04/19 07:14:04;;;;;;;6.05;2.28;;;;;;;;;;5040314;28;20048;-61
2022/04/19 07:17:08;;;;;;;7.75;3.00;;;;;;;;;;5055205;28;20057;-63
2022/04/19 07:29:12;;;;;;;5.43;2.67;;;;;;;;;;5035002;28;20038;-61
2022/04/19 07:31:58;;;;;;;5.35;2.55;;;;;;;;;;5048223;28;20042;-64
2022/04/19 07:35:11;;;;;;;3.58;1.98;;;;;;;;;;5040339;28;20036;-63
2022/04/19 07:37:56;;;;;;;6.32;2.25;;;;;;;;;;5034521;28;20037;-63
2022/04/19 07:40:49;;;;;;;5.05;2.30;;;;;;;;;;5058905;28;20056;-60
2022/04/19 07:43:37;;;;;;;5.03;2.63;;;;;;;;;;5054864;28;20045;-62
2022/04/19 07:46:21;;;;;;;4.80;2.65;;;;;;;;;;5053854;28;20068;-57
2022/04/19 07:49:06;;;;;;;4.05;2.55;;;;;;;;;;5053638;28;20049;-61
2022/04/19 07:51:52;;;;;;;4.50;2.40;;;;;;;;;;5053901;28;20412;-62
2022/04/19 07:54:36;;;;;;;5.20;2.42;;;;;;;;;;5039616;28;20378;-63
2022/04/19 07:57:23;;;;;;;7.38;2.47;;;;;;;;;;5053521;28;20079;-61
2022/04/19 08:00:10;;;;;;;3.55;1.73;;;;;;;;;;5051575;28;20404;-62
2022/04/19 08:03:04;;;;;;;4.95;2.70;;;;;;;;;;5052471;28;20049;-59
2022/04/19 08:05:50;;;;;;;7.28;2.80;;;;;;;;;;5057006;28;20051;-60
2022/04/19 08:08:36;;;;;;;5.07;2.95;;;;;;;;;;5049899;28;20037;-60
2022/04/19 08:11:21;;;;;;;5.43;2.83;;;;;;;;;;5051758;28;20049;-59
2022/04/19 08:14:07;;;;;;;6.90;2.72;;;;;;;;;;5048885;28;20041;-60
2022/04/19 08:16:52;;;;;;;4.97;2.90;;;;;;;;;;5051047;28;20040;-62
2022/04/19 08:19:37;;;;;;;5.43;3.03;;;;;;;;;;5062756;28;20049;-60
2022/04/19 08:22:22;;;;;;;3.53;2.42;;;;;;;;;;5048762;28;20107;-59
2022/04/19 08:25:16;;;;;;;3.30;2.25;;;;;;;;;;5053602;28;20408;-50
2022/04/19 08:28:00;;;;;;;4.22;2.33;;;;;;;;;;5029590;28;20077;-52
2022/04/19 08:30:45;;;;;;;7.13;3.17;;;;;;;;;;5040938;28;20513;-48
2022/04/19 08:33:35;;;;;;;7.32;2.80;;;;;;;;;;5069239;28;20099;-54
2022/04/19 08:36:21;;;;;;;8.30;3.25;;;;;;;;;;5052474;28;20045;-51
2022/04/19 08:39:09;;;;;;;6.65;2.85;;;;;;;;;;5052134;28;20052;-49
2022/04/19 08:41:54;;;;;;;4.43;2.85;;;;;;;;;;5037440;28;20073;-52
2022/04/19 08:44:39;;;;;;;3.88;2.55;;;;;;;;;;5052258;28;20116;-46
2022/04/19 08:47:24;;;;;;;4.55;2.80;;;;;;;;;;5053035;28;20481;-51
2022/04/19 08:50:12;;;;;;;5.07;2.22;;;;;;;;;;5033600;28;20417;-48
2022/04/19 08:59:05;;;;;;;6.40;2.38;;;;;;;;;;5053322;28;20095;-49
2022/04/19 09:01:51;;;;;;;5.95;2.70;;;;;;;;;;5053130;28;20040;-48
2022/04/19 09:04:35;;;;;;;3.65;2.08;;;;;;;;;;5043266;28;20152;-46
2022/04/19 09:07:34;;;;;;;6.55;2.08;;;;;;;;;;5033089;28;20121;-61
2022/04/19 09:10:25;;;;;;;3.35;1.67;;;;;;;;;;5031975;28;20495;-55
2022/04/19 09:13:11;;;;;;;1.75;1.20;;;;;;;;;;5033132;28;20408;-58
2022/04/19 09:16:01;;;;;;;6.93;2.42;;;;;;;;;;5032006;28;20041;-58
2022/04/19 09:18:47;;;;;;;4.60;2.70;;;;;;;;;;5033644;28;20472;-59
2022/04/19 09:21:39;;;;;;;25.52;6.15;;;;;;;;;;5031603;28;20477;-57
2022/04/19 09:24:24;;;;;;;17.63;4.97;;;;;;;;;;5033146;28;20452;-55
2022/04/19 09:27:08;;;;;;;12.90;4.57;;;;;;;;;;5032776;28;20091;-56
2022/04/19 09:29:53;;;;;;;16.52;4.47;;;;;;;;;;5045938;28;20047;-57
2022/04/19 09:32:38;;;;;;;11.93;3.47;;;;;;;;;;5047562;28;20044;-53
2022/04/19 09:35:30;;;;;;;27.02;6.38;;;;;;;;;;5037829;28;20049;-59
2022/04/19 09:38:15;;;;;;;12.02;4.00;;;;;;;;;;5051479;28;20048;-60
2022/04/19 09:41:00;;;;;;;5.85;3.13;;;;;;;;;;5052998;28;20049;-59
2022/04/19 09:44:03;;;;;;;14.57;3.63;;;;;;;;;;5050840;28;20045;-59
2022/04/19 09:47:06;;;;;;;8.55;3.55;;;;;;;;;;5052400;28;20132;-58
2022/04/19 09:49:52;;;;;;;9.88;3.50;;;;;;;;;;5051839;28;20182;-59
2022/04/19 09:52:43;;;;;;;7.65;2.88;;;;;;;;;;5047628;28;20476;-56
2022/04/19 09:55:29;;;;;;;6.93;2.88;;;;;;;;;;5032145;28;20048;-57
2022/04/19 09:58:14;;;;;;;5.63;2.90;;;;;;;;;;5032555;28;20052;-54
2022/04/19 10:01:00;;;;;;;7.38;2.83;;;;;;;;;;5031359;28;20045;-52
2022/04/19 10:09:47;;;;;;;4.30;3.22;;;;;;;;;;5051960;28;20045;-54
2022/04/19 10:12:33;;;;;;;5.30;2.38;;;;;;;;;;5051613;28;20068;-60
2022/04/19 10:15:17;;;;;;;5.57;3.20;;;;;;;;;;5051830;28;20119;-57
2022/04/19 10:18:05;;;;;;;5.53;2.72;;;;;;;;;;5051826;28;20059;-56
2022/04/19 10:20:54;;;;;;;6.00;2.95;;;;;;;;;;5052271;28;20045;-57
2022/04/19 10:23:40;;;;;;;5.35;3.22;;;;;;;;;;5050803;28;20472;-58
2022/04/19 10:26:28;;;;;;;6.38;2.97;;;;;;;;;;5065053;28;20041;-58
2022/04/19 10:29:16;;;;;;;8.27;3.42;;;;;;;;;;5036704;28;20404;-59
2022/04/19 10:32:06;;;;;;;5.15;3.05;;;;;;;;;;5051493;28;20507;-58
2022/04/19 10:34:58;;;;;;;5.32;3.60;;;;;;;;;;5051855;28;20431;-59
2022/04/19 10:37:44;;;;;;;;;;;;;;;;;;5051989;28;20110;-58
2022/04/19 10:40:48;;;;;;;5.50;3.20;;;;;;;;;;5079010;28;19920;-58
2022/04/19 10:43:32;;;;;;;7.90;3.80;;;;;;;;;;5053479;28;20119;-58
2022/04/19 10:46:21;;;;;;;6.85;3.63;;;;;;;;;;5054872;28;20060;-57
2022/04/19 10:49:24;;;;;;;8.98;4.13;;;;;;;;;;5055102;28;20098;-58
2022/04/19 10:52:29;;;;;;;8.13;4.10;;;;;;;;;;5055376;28;20052;-60
2022/04/19 10:55:17;;;;;;;5.95;3.47;;;;;;;;;;5051894;28;20041;-57
2022/04/19 10:58:23;;;;;;;7.28;4.25;;;;;;;;;;5055882;28;20047;-60
2022/04/19 11:01:26;;;;;;;11.02;4.05;;;;;;;;;;5055251;28;20408;-58
2022/04/19 11:04:31;;;;;;;7.43;3.72;;;;;;;;;;5055454;28;20056;-55
2022/04/19 11:07:34;;;;;;;12.65;5.18;;;;;;;;;;5054347;28;20041;-57
2022/04/19 11:10:36;;;;;;;6.22;3.30;;;;;;;;;;5054994;28;20049;-59
2022/04/19 11:13:21;;;;;;;7.13;3.85;;;;;;;;;;5054196;28;20049;-56
2022/04/19 11:16:05;;;;;;;9.27;3.35;;;;;;;;;;5054721;28;20045;-59
2022/04/19 11:18:53;;;;;;;4.65;2.97;;;;;;;;;;5055147;28;20049;-61
2022/04/19 11:21:48;;;;;;;5.95;3.55;;;;;;;;;;5054051;28;20049;-61
2022/04/19 11:24:51;;;;;;;7.82;3.40;;;;;;;;;;5053146;28;20049;-61
2022/04/19 11:27:54;;;;;;;5.63;3.70;;;;;;;;;;5052003;28;20369;-60
2022/04/19 11:30:45;;;;;;;5.97;3.70;;;;;;;;;;5054737;28;20101;-57
2022/04/19 11:33:34;;;;;;;8.00;3.80;;;;;;;;;;5054969;28;20049;-59
2022/04/19 11:36:20;;;;;;;8.60;3.65;;;;;;;;;;5055000;28;20498;-56
2022/04/19 11:39:05;;;;;;;9.45;3.38;;;;;;;;;;5054640;28;20041;-60
2022/04/19 11:48:10;;;;;;;4.88;3.50;;;;;;;;;;5039944;28;20068;-58
2022/04/19 11:51:14;;;;;;;5.78;3.53;;;;;;;;;;5036510;28;20465;-58
2022/04/19 11:53:59;;;;;;;7.47;3.35;;;;;;;;;;5050758;28;20044;-57
2022/04/19 11:56:44;;;;;;;5.38;3.50;;;;;;;;;;5052645;28;20045;-61
2022/04/19 11:59:31;;;;;;;6.35;3.50;;;;;;;;;;5054506;28;20041;-58
2022/04/19 12:02:17;;;;;;;4.82;3.45;;;;;;;;;;5053529;28;20468;-57
2022/04/19 12:05:03;;;;;;;5.13;3.38;;;;;;;;;;5039159;28;20037;-54
2022/04/19 12:07:47;;;;;;;5.70;3.90;;;;;;;;;;5054144;28;20435;-57
2022/04/19 12:10:32;;;;;;;4.68;3.38;;;;;;;;;;5053900;28;20051;-55
2022/04/19 12:13:17;;;;;;;6.35;3.65;;;;;;;;;;5054846;28;20045;-56
2022/04/19 12:16:09;;;;;;;6.55;3.45;;;;;;;;;;5054285;28;20476;-56
